Stavros S. Niarchos — MZIU7 — position and weather

sailwx.info

Track history (hours):
 
Tides and Currents Weather Stations Pressure Air Temp Water Temp Dewpoint Dewpoint Depression Visibility Wind Speed Wind Dir Waves Ship Positions

Stavros S. Niarchos

See http://www.classic-sailing.co.uk/ for bookings.

Ship's website: http://www.tallships.org/

Last reported at 2017-Mar-28 05:00 UTC. Time now 2017-Mar-28 08:17 UTC.
Position N 55°06' W 005°18'.

Length 59.4 m; beam 9.9 m; draft 4.5 m.

Type: Sailing vessel. MMSI: 232007330.

Wind from 140 at 19 knots

Barometer 1017.6 mb
Air temperature 6.8 ° C
Visibility: greater than 2.2 NM
Dewpoint 3.7 ° C
Water temperature 7.9 ° C

Date/timePositionNaut miles runAvg speedWind from/ knotsBaromVisibWave heightAir tempDewpointWater temp
2017-Mar-28 05:00N 55°06' W 005°18'7 4.0 140 / 191017.6 2.2 6.8 3.7 7.9
2017-Mar-28 03:16N 55°01' W 005°25'4 5.1
2017-Mar-28 02:33N 54°57' W 005°25'915.7
2017-Mar-28 02:00N 54°48' W 005°24'3 7.1 110 / 141018.2 5.4 8.4 4.0 7.8
2017-Mar-28 01:33N 54°51' W 005°23'6 5.6
2017-Mar-28 00:33N 54°46' W 005°22'4 4.1
2017-Mar-27 23:33N 54°42' W 005°20'3 2.6
2017-Mar-27 22:33N 54°39' W 005°19'2 1.6
2017-Mar-27 21:33N 54°40' W 005°17'2 1.8
2017-Mar-27 20:33N 54°42' W 005°16'2 1.8
2017-Mar-27 19:33N 54°43' W 005°15'1 1.5
2017-Mar-27 18:33N 54°45' W 005°15'1 1.0
2017-Mar-27 17:33N 54°46' W 005°15'4 7.5
2017-Mar-27 17:00N 54°42' W 005°12'4 8.4 160 / 21021.6 5.4 9.5 6.7 8.2
2017-Mar-27 16:33N 54°45' W 005°14'2 2.2
2017-Mar-27 15:33N 54°43' W 005°14'3 2.8
2017-Mar-27 14:33N 54°40' W 005°12'5 8.0
2017-Mar-27 14:00N 54°36' W 005°12'1 3.0 120 / 51022.610.8 11.1 4.2 8.8
2017-Mar-27 13:33N 54°37' W 005°11'4 4.2
2017-Mar-27 12:33N 54°33' W 005°08'4 3.6
2017-Mar-27 11:33N 54°30' W 005°06'3 3.5
2017-Mar-27 10:33N 54°27' W 005°04'3 2.8
2017-Mar-27 09:24N 54°23' W 005°02'1 1.3
2017-Mar-27 08:24N 54°22' W 005°02'1 1.7
2017-Mar-27 07:32N 54°21' W 005°02'3 2.8
2017-Mar-27 06:32N 54°18' W 005°00'60 4.6
2017-Mar-26 17:33N 53°38' W 003°45'5 4.5
2017-Mar-26 16:33N 53°35' W 003°38'5 5.3
2017-Mar-26 15:33N 53°34' W 003°30'814.4
2017-Mar-26 15:00N 53°30' W 003°18'3 5.9 080 / 161025.610.8 16.8 7.210.3
2017-Mar-26 14:33N 53°31' W 003°14'10 9.6
2017-Mar-26 13:33N 53°26' W 003°01'0 0.3
2017-Mar-26 12:32N 53°26' W 003°00'0 0.1
2017-Mar-26 11:32N 53°26' W 003°00'0 0.0
2017-Mar-26 10:32N 53°26' W 003°00'0 0.0
2017-Mar-26 09:26N 53°26' W 003°00'0 0.0
2017-Mar-26 08:32N 53°26' W 003°00'0 0.0
2017-Mar-26 07:32N 53°26' W 003°00'0 0.0
2017-Mar-26 06:29N 53°26' W 003°00'0 0.0
2017-Mar-26 05:32N 53°26' W 003°00'0 0.0
2017-Mar-26 04:29N 53°26' W 003°00'0 0.0
2017-Mar-26 03:32N 53°26' W 003°00'0 0.0
2017-Mar-26 02:32N 53°26' W 003°00'0 0.0
2017-Mar-26 01:32N 53°26' W 003°00'0 0.0
2017-Mar-26 00:32N 53°26' W 003°00'0 0.0
2017-Mar-25 23:32N 53°26' W 003°00'0 0.0
2017-Mar-25 22:29N 53°26' W 003°00'0 0.0
2017-Mar-25 21:29N 53°26' W 003°00'0 0.0
2017-Mar-25 20:32N 53°26' W 003°00'0 0.0
2017-Mar-25 19:31N 53°26' W 003°00'0 0.0
2017-Mar-25 18:32N 53°26' W 003°00'0 0.0
2017-Mar-25 17:31N 53°26' W 003°00'0 0.0
2017-Mar-25 16:28N 53°26' W 003°00'0 0.0
2017-Mar-25 15:29N 53°26' W 003°00'0 0.0
2017-Mar-25 14:31N 53°26' W 003°00'0 0.0
2017-Mar-25 13:31N 53°26' W 003°00'0 0.0
2017-Mar-25 12:31N 53°26' W 003°00'0 0.0
2017-Mar-25 11:31N 53°26' W 003°00'0 0.0
2017-Mar-25 10:25N 53°26' W 003°00'0 0.0
2017-Mar-25 09:22N 53°26' W 003°00'0 0.0
2017-Mar-25 08:31N 53°26' W 003°00'0 0.0
2017-Mar-25 07:29N 53°26' W 003°00'0 0.0
2017-Mar-25 06:29N 53°26' W 003°00'0 0.0
2017-Mar-25 05:32N 53°26' W 003°00'0 0.0
2017-Mar-25 04:26N 53°26' W 003°00'0 0.0
2017-Mar-25 03:20N 53°26' W 003°00'0 0.0
2017-Mar-25 02:32N 53°26' W 003°00'0 0.0
2017-Mar-25 01:32N 53°26' W 003°00'0 0.0
2017-Mar-25 00:32N 53°26' W 003°00'0 0.0
2017-Mar-24 23:32N 53°26' W 003°00'0 0.0
2017-Mar-24 22:29N 53°26' W 003°00'0 0.0
2017-Mar-24 21:32N 53°26' W 003°00'0 0.0
2017-Mar-24 20:32N 53°26' W 003°00'0 0.0
2017-Mar-24 19:32N 53°26' W 003°00'0 0.0
2017-Mar-24 18:32N 53°26' W 003°00'0 0.0
2017-Mar-24 17:32N 53°26' W 003°00'0 0.0
2017-Mar-24 16:32N 53°26' W 003°00'0 0.0
2017-Mar-24 15:32N 53°26' W 003°00'0 0.0
2017-Mar-24 14:32N 53°26' W 003°00'0 0.0
2017-Mar-24 13:32N 53°26' W 003°00'0 0.0
2017-Mar-24 12:26N 53°26' W 003°00'0 0.0
2017-Mar-24 11:29N 53°26' W 003°00'0 0.0
2017-Mar-24 10:32N 53°26' W 003°00'0 0.0
2017-Mar-24 09:29N 53°26' W 003°00'0 0.0
2017-Mar-24 08:32N 53°26' W 003°00'0 0.0
2017-Mar-24 07:32N 53°26' W 003°00'0 0.0
2017-Mar-24 06:31N 53°26' W 003°00'0 0.0
2017-Mar-24 05:31N 53°26' W 003°00'0 0.0
2017-Mar-24 04:31N 53°26' W 003°00'0 0.0
2017-Mar-24 03:31N 53°26' W 003°00'0 0.0
2017-Mar-24 02:32N 53°26' W 003°00'0 0.0
2017-Mar-24 01:31N 53°26' W 003°00'0 0.0
2017-Mar-24 00:31N 53°26' W 003°00'0 0.0
2017-Mar-23 23:23N 53°26' W 003°00'0 0.0
2017-Mar-23 22:31N 53°26' W 003°00'0 0.0
2017-Mar-23 21:31N 53°26' W 003°00'0 0.0
2017-Mar-23 20:22N 53°26' W 003°00'0 0.0
2017-Mar-23 19:31N 53°26' W 003°00'0 0.0
2017-Mar-23 18:31N 53°26' W 003°00'0 0.0
2017-Mar-23 17:28N 53°26' W 003°00'0 0.0
2017-Mar-23 16:31N 53°26' W 003°00'0 0.0
2017-Mar-23 15:31N 53°26' W 003°00'0 0.0
2017-Mar-23 14:22N 53°26' W 003°00'0 0.0
2017-Mar-23 13:31N 53°26' W 003°00'0 0.0
2017-Mar-23 12:31N 53°26' W 003°00'0 0.0
2017-Mar-23 11:28N 53°26' W 003°00'0 0.0
2017-Mar-23 10:33N 53°26' W 003°00'1 0.5
2017-Mar-23 09:33N 53°26' W 003°01'1 0.6
2017-Mar-23 08:33N 53°26' W 003°01'3 3.4
2017-Mar-23 07:34N 53°28' W 003°04'6 6.3
2017-Mar-23 06:33N 53°31' W 003°14'6 5.8
2017-Mar-23 05:33N 53°31' W 003°24'3 3.3
2017-Mar-23 04:33N 53°31' W 003°29'4 4.5
2017-Mar-23 03:33N 53°30' W 003°37'4 3.8
2017-Mar-23 02:30N 53°31' W 003°43'3 3.3
2017-Mar-23 01:33N 53°33' W 003°47'43 1.0
2017-Mar-21 06:00N 54°12' W 004°18'0 0.0 250 / 201001.5 5.4 4.8-0.6 7.8
2017-Mar-21 03:00N 54°12' W 004°18'18 1.7 250 / 201001.0 5.4 4.5-0.9 8.2
2017-Mar-20 16:00N 53°54' W 004°12'30 3.3 240 / 25999.0 5.4 8.8 3.2 9.0
2017-Mar-20 07:00N 53°24' W 004°12'6 1.2 250 / 24998.7 2.2 10.6 8.4 8.4
2017-Mar-20 02:00N 53°18' W 004°12'11 2.4 220 / 221000.7 5.4 10.5 8.9 8.4
2017-Mar-19 21:19N 53°28' W 004°02'8 8.6
2017-Mar-19 20:25N 53°32' W 003°51'7 8.6
2017-Mar-19 19:33N 53°33' W 003°39'9 9.1
2017-Mar-19 18:33N 53°33' W 003°23'9 8.6
2017-Mar-19 17:33N 53°32' W 003°09'7 7.4
2017-Mar-19 16:33N 53°26' W 003°01'0 0.2
2017-Mar-19 15:31N 53°27' W 003°01'1 0.6
2017-Mar-19 14:33N 53°26' W 003°00'0 0.0
2017-Mar-19 13:33N 53°26' W 003°00'0 0.0
2017-Mar-19 12:33N 53°26' W 003°00'0 0.0
2017-Mar-19 11:27N 53°26' W 003°00'0 0.0
2017-Mar-19 10:33N 53°26' W 003°00'0 0.0
2017-Mar-19 09:30N 53°26' W 003°00'0 0.0
2017-Mar-19 08:33N 53°26' W 003°00'0 0.0
2017-Mar-19 07:31N 53°26' W 003°00'0 0.0
2017-Mar-19 06:31N 53°26' W 003°00'0 0.0
2017-Mar-19 05:31N 53°26' W 003°00'0 0.0
2017-Mar-19 04:28N 53°26' W 003°00'0 0.0
2017-Mar-19 03:31N 53°26' W 003°00'0 0.0
2017-Mar-19 02:26N 53°26' W 003°00'0 0.0
2017-Mar-19 01:20N 53°26' W 003°00'0 0.0
2017-Mar-19 00:32N 53°26' W 003°00'0 0.0
2017-Mar-18 23:32N 53°26' W 003°00'0 0.0
2017-Mar-18 22:26N 53°26' W 003°00'0 0.0
2017-Mar-18 21:32N 53°26' W 003°00'0 0.0
2017-Mar-18 20:32N 53°26' W 003°00'0 0.0
2017-Mar-18 19:32N 53°26' W 003°00'0 0.0
2017-Mar-18 18:32N 53°26' W 003°00'0 0.0
2017-Mar-18 17:32N 53°26' W 003°00'0 0.0
2017-Mar-18 16:32N 53°26' W 003°00'0 0.0
2017-Mar-18 15:32N 53°26' W 003°00'0 0.0
2017-Mar-18 14:28N 53°26' W 003°00'0 0.1
2017-Mar-18 13:31N 53°26' W 003°00'0 0.1
2017-Mar-18 12:28N 53°26' W 003°00'0 0.0
2017-Mar-18 11:31N 53°26' W 003°00'0 0.0
2017-Mar-18 10:31N 53°26' W 003°00'0 0.0
2017-Mar-18 09:31N 53°26' W 003°00'0 0.0
2017-Mar-18 08:25N 53°26' W 003°00'0 0.0
2017-Mar-18 07:31N 53°26' W 003°00'0 0.0
2017-Mar-18 06:31N 53°26' W 003°00'0 0.0
2017-Mar-18 05:28N 53°26' W 003°00'  
Track history (hours):
 
Tides and Currents Weather Stations Pressure Air Temp Water Temp Dewpoint Dewpoint Depression Visibility Wind Speed Wind Dir Waves Ship Positions

Stavros S. Niarchos

See http://www.classic-sailing.co.uk/ for bookings.

Ship's website: http://www.tallships.org/

Last reported at 2017-Mar-28 05:00 UTC. Time now 2017-Mar-28 08:17 UTC.
Position N 55°06' W 005°18'.

Length 59.4 m; beam 9.9 m; draft 4.5 m.

Type: Sailing vessel. MMSI: 232007330.

Wind from 140 at 19 knots

Barometer 1017.6 mb
Air temperature 6.8 ° C
Visibility: greater than 2.2 NM
Dewpoint 3.7 ° C
Water temperature 7.9 ° C

Date/timePositionNaut miles runAvg speedWind from/ knotsBaromVisibWave heightAir tempDewpointWater temp
2017-Mar-28 05:00N 55°06' W 005°18'7 4.0 140 / 191017.6 2.2 6.8 3.7 7.9
2017-Mar-28 03:16N 55°01' W 005°25'4 5.1
2017-Mar-28 02:33N 54°57' W 005°25'915.7
2017-Mar-28 02:00N 54°48' W 005°24'3 7.1 110 / 141018.2 5.4 8.4 4.0 7.8
2017-Mar-28 01:33N 54°51' W 005°23'6 5.6
2017-Mar-28 00:33N 54°46' W 005°22'4 4.1
2017-Mar-27 23:33N 54°42' W 005°20'3 2.6
2017-Mar-27 22:33N 54°39' W 005°19'2 1.6
2017-Mar-27 21:33N 54°40' W 005°17'2 1.8
2017-Mar-27 20:33N 54°42' W 005°16'2 1.8
2017-Mar-27 19:33N 54°43' W 005°15'1 1.5
2017-Mar-27 18:33N 54°45' W 005°15'1 1.0
2017-Mar-27 17:33N 54°46' W 005°15'4 7.5
2017-Mar-27 17:00N 54°42' W 005°12'4 8.4 160 / 21021.6 5.4 9.5 6.7 8.2
2017-Mar-27 16:33N 54°45' W 005°14'2 2.2
2017-Mar-27 15:33N 54°43' W 005°14'3 2.8
2017-Mar-27 14:33N 54°40' W 005°12'5 8.0
2017-Mar-27 14:00N 54°36' W 005°12'1 3.0 120 / 51022.610.8 11.1 4.2 8.8
2017-Mar-27 13:33N 54°37' W 005°11'4 4.2
2017-Mar-27 12:33N 54°33' W 005°08'4 3.6
2017-Mar-27 11:33N 54°30' W 005°06'3 3.5
2017-Mar-27 10:33N 54°27' W 005°04'3 2.8
2017-Mar-27 09:24N 54°23' W 005°02'1 1.3
2017-Mar-27 08:24N 54°22' W 005°02'1 1.7
2017-Mar-27 07:32N 54°21' W 005°02'3 2.8
2017-Mar-27 06:32N 54°18' W 005°00'60 4.6
2017-Mar-26 17:33N 53°38' W 003°45'5 4.5
2017-Mar-26 16:33N 53°35' W 003°38'5 5.3
2017-Mar-26 15:33N 53°34' W 003°30'814.4
2017-Mar-26 15:00N 53°30' W 003°18'3 5.9 080 / 161025.610.8 16.8 7.210.3
2017-Mar-26 14:33N 53°31' W 003°14'10 9.6
2017-Mar-26 13:33N 53°26' W 003°01'0 0.3
2017-Mar-26 12:32N 53°26' W 003°00'0 0.1
2017-Mar-26 11:32N 53°26' W 003°00'0 0.0
2017-Mar-26 10:32N 53°26' W 003°00'0 0.0
2017-Mar-26 09:26N 53°26' W 003°00'0 0.0
2017-Mar-26 08:32N 53°26' W 003°00'0 0.0
2017-Mar-26 07:32N 53°26' W 003°00'0 0.0
2017-Mar-26 06:29N 53°26' W 003°00'0 0.0
2017-Mar-26 05:32N 53°26' W 003°00'0 0.0
2017-Mar-26 04:29N 53°26' W 003°00'0 0.0
2017-Mar-26 03:32N 53°26' W 003°00'0 0.0
2017-Mar-26 02:32N 53°26' W 003°00'0 0.0
2017-Mar-26 01:32N 53°26' W 003°00'0 0.0
2017-Mar-26 00:32N 53°26' W 003°00'0 0.0
2017-Mar-25 23:32N 53°26' W 003°00'0 0.0
2017-Mar-25 22:29N 53°26' W 003°00'0 0.0
2017-Mar-25 21:29N 53°26' W 003°00'0 0.0
2017-Mar-25 20:32N 53°26' W 003°00'0 0.0
2017-Mar-25 19:31N 53°26' W 003°00'0 0.0
2017-Mar-25 18:32N 53°26' W 003°00'0 0.0
2017-Mar-25 17:31N 53°26' W 003°00'0 0.0
2017-Mar-25 16:28N 53°26' W 003°00'0 0.0
2017-Mar-25 15:29N 53°26' W 003°00'0 0.0
2017-Mar-25 14:31N 53°26' W 003°00'0 0.0
2017-Mar-25 13:31N 53°26' W 003°00'0 0.0
2017-Mar-25 12:31N 53°26' W 003°00'0 0.0
2017-Mar-25 11:31N 53°26' W 003°00'0 0.0
2017-Mar-25 10:25N 53°26' W 003°00'0 0.0
2017-Mar-25 09:22N 53°26' W 003°00'0 0.0
2017-Mar-25 08:31N 53°26' W 003°00'0 0.0
2017-Mar-25 07:29N 53°26' W 003°00'0 0.0
2017-Mar-25 06:29N 53°26' W 003°00'0 0.0
2017-Mar-25 05:32N 53°26' W 003°00'0 0.0
2017-Mar-25 04:26N 53°26' W 003°00'0 0.0
2017-Mar-25 03:20N 53°26' W 003°00'0 0.0
2017-Mar-25 02:32N 53°26' W 003°00'0 0.0
2017-Mar-25 01:32N 53°26' W 003°00'0 0.0
2017-Mar-25 00:32N 53°26' W 003°00'0 0.0
2017-Mar-24 23:32N 53°26' W 003°00'0 0.0
2017-Mar-24 22:29N 53°26' W 003°00'0 0.0
2017-Mar-24 21:32N 53°26' W 003°00'0 0.0
2017-Mar-24 20:32N 53°26' W 003°00'0 0.0
2017-Mar-24 19:32N 53°26' W 003°00'0 0.0
2017-Mar-24 18:32N 53°26' W 003°00'0 0.0
2017-Mar-24 17:32N 53°26' W 003°00'0 0.0
2017-Mar-24 16:32N 53°26' W 003°00'0 0.0
2017-Mar-24 15:32N 53°26' W 003°00'0 0.0
2017-Mar-24 14:32N 53°26' W 003°00'0 0.0
2017-Mar-24 13:32N 53°26' W 003°00'0 0.0
2017-Mar-24 12:26N 53°26' W 003°00'0 0.0
2017-Mar-24 11:29N 53°26' W 003°00'0 0.0
2017-Mar-24 10:32N 53°26' W 003°00'0 0.0
2017-Mar-24 09:29N 53°26' W 003°00'0 0.0
2017-Mar-24 08:32N 53°26' W 003°00'0 0.0
2017-Mar-24 07:32N 53°26' W 003°00'0 0.0
2017-Mar-24 06:31N 53°26' W 003°00'0 0.0
2017-Mar-24 05:31N 53°26' W 003°00'0 0.0
2017-Mar-24 04:31N 53°26' W 003°00'0 0.0
2017-Mar-24 03:31N 53°26' W 003°00'0 0.0
2017-Mar-24 02:32N 53°26' W 003°00'0 0.0
2017-Mar-24 01:31N 53°26' W 003°00'0 0.0
2017-Mar-24 00:31N 53°26' W 003°00'0 0.0
2017-Mar-23 23:23N 53°26' W 003°00'0 0.0
2017-Mar-23 22:31N 53°26' W 003°00'0 0.0
2017-Mar-23 21:31N 53°26' W 003°00'0 0.0
2017-Mar-23 20:22N 53°26' W 003°00'0 0.0
2017-Mar-23 19:31N 53°26' W 003°00'0 0.0
2017-Mar-23 18:31N 53°26' W 003°00'0 0.0
2017-Mar-23 17:28N 53°26' W 003°00'0 0.0
2017-Mar-23 16:31N 53°26' W 003°00'0 0.0
2017-Mar-23 15:31N 53°26' W 003°00'0 0.0
2017-Mar-23 14:22N 53°26' W 003°00'0 0.0
2017-Mar-23 13:31N 53°26' W 003°00'0 0.0
2017-Mar-23 12:31N 53°26' W 003°00'0 0.0
2017-Mar-23 11:28N 53°26' W 003°00'0 0.0
2017-Mar-23 10:33N 53°26' W 003°00'1 0.5
2017-Mar-23 09:33N 53°26' W 003°01'1 0.6
2017-Mar-23 08:33N 53°26' W 003°01'3 3.4
2017-Mar-23 07:34N 53°28' W 003°04'6 6.3
2017-Mar-23 06:33N 53°31' W 003°14'6 5.8
2017-Mar-23 05:33N 53°31' W 003°24'3 3.3
2017-Mar-23 04:33N 53°31' W 003°29'4 4.5
2017-Mar-23 03:33N 53°30' W 003°37'4 3.8
2017-Mar-23 02:30N 53°31' W 003°43'3 3.3
2017-Mar-23 01:33N 53°33' W 003°47'43 1.0
2017-Mar-21 06:00N 54°12' W 004°18'0 0.0 250 / 201001.5 5.4 4.8-0.6 7.8
2017-Mar-21 03:00N 54°12' W 004°18'18 1.7 250 / 201001.0 5.4 4.5-0.9 8.2
2017-Mar-20 16:00N 53°54' W 004°12'30 3.3 240 / 25999.0 5.4 8.8 3.2 9.0
2017-Mar-20 07:00N 53°24' W 004°12'6 1.2 250 / 24998.7 2.2 10.6 8.4 8.4
2017-Mar-20 02:00N 53°18' W 004°12'11 2.4 220 / 221000.7 5.4 10.5 8.9 8.4
2017-Mar-19 21:19N 53°28' W 004°02'8 8.6
2017-Mar-19 20:25N 53°32' W 003°51'7 8.6
2017-Mar-19 19:33N 53°33' W 003°39'9 9.1
2017-Mar-19 18:33N 53°33' W 003°23'9 8.6
2017-Mar-19 17:33N 53°32' W 003°09'7 7.4
2017-Mar-19 16:33N 53°26' W 003°01'0 0.2
2017-Mar-19 15:31N 53°27' W 003°01'1 0.6
2017-Mar-19 14:33N 53°26' W 003°00'0 0.0
2017-Mar-19 13:33N 53°26' W 003°00'0 0.0
2017-Mar-19 12:33N 53°26' W 003°00'0 0.0
2017-Mar-19 11:27N 53°26' W 003°00'0 0.0
2017-Mar-19 10:33N 53°26' W 003°00'0 0.0
2017-Mar-19 09:30N 53°26' W 003°00'0 0.0
2017-Mar-19 08:33N 53°26' W 003°00'0 0.0
2017-Mar-19 07:31N 53°26' W 003°00'0 0.0
2017-Mar-19 06:31N 53°26' W 003°00'0 0.0
2017-Mar-19 05:31N 53°26' W 003°00'0 0.0
2017-Mar-19 04:28N 53°26' W 003°00'0 0.0
2017-Mar-19 03:31N 53°26' W 003°00'0 0.0
2017-Mar-19 02:26N 53°26' W 003°00'0 0.0
2017-Mar-19 01:20N 53°26' W 003°00'0 0.0
2017-Mar-19 00:32N 53°26' W 003°00'0 0.0
2017-Mar-18 23:32N 53°26' W 003°00'0 0.0
2017-Mar-18 22:26N 53°26' W 003°00'0 0.0
2017-Mar-18 21:32N 53°26' W 003°00'0 0.0
2017-Mar-18 20:32N 53°26' W 003°00'0 0.0
2017-Mar-18 19:32N 53°26' W 003°00'0 0.0
2017-Mar-18 18:32N 53°26' W 003°00'0 0.0
2017-Mar-18 17:32N 53°26' W 003°00'0 0.0
2017-Mar-18 16:32N 53°26' W 003°00'0 0.0
2017-Mar-18 15:32N 53°26' W 003°00'0 0.0
2017-Mar-18 14:28N 53°26' W 003°00'0 0.1
2017-Mar-18 13:31N 53°26' W 003°00'0 0.1
2017-Mar-18 12:28N 53°26' W 003°00'0 0.0
2017-Mar-18 11:31N 53°26' W 003°00'0 0.0
2017-Mar-18 10:31N 53°26' W 003°00'0 0.0
2017-Mar-18 09:31N 53°26' W 003°00'0 0.0
2017-Mar-18 08:25N 53°26' W 003°00'0 0.0
2017-Mar-18 07:31N 53°26' W 003°00'0 0.0
2017-Mar-18 06:31N 53°26' W 003°00'0 0.0
2017-Mar-18 05:28N 53°26' W 003°00'  

Dump ship's entire track history